createdAt,value
2018-07-16T00:01:50.015Z,25.67
2018-07-16T00:04:19.852Z,25.71
2018-07-16T00:06:49.677Z,25.73
2018-07-16T00:09:19.458Z,25.71
2018-07-16T00:11:49.328Z,25.79
2018-07-16T00:14:19.129Z,25.67
2018-07-16T00:16:49.013Z,25.73
2018-07-16T00:19:18.848Z,25.78
2018-07-16T00:21:48.622Z,25.65
2018-07-16T00:24:18.444Z,25.70
2018-07-16T00:26:48.220Z,25.73
2018-07-16T00:29:18.118Z,25.78
2018-07-16T00:31:47.933Z,25.78
2018-07-16T00:34:17.792Z,25.75
2018-07-16T00:36:47.641Z,25.75
2018-07-16T00:39:17.456Z,25.80
2018-07-16T00:41:47.260Z,25.84
2018-07-16T00:44:17.140Z,25.79
2018-07-16T00:46:47.167Z,25.80
2018-07-16T00:49:16.984Z,25.77
2018-07-16T00:51:46.808Z,25.77
2018-07-16T00:54:16.607Z,25.87
2018-07-16T00:56:46.408Z,25.73
2018-07-16T00:59:16.292Z,25.77
2018-07-16T01:01:46.200Z,25.70
2018-07-16T01:04:16.049Z,25.74
2018-07-16T01:06:45.881Z,25.78
2018-07-16T01:09:15.652Z,25.84
2018-07-16T01:11:45.501Z,25.79
2018-07-16T01:14:15.325Z,25.84
2018-07-16T01:16:45.126Z,25.81
2018-07-16T01:19:15.098Z,25.77
2018-07-16T01:21:44.904Z,25.73
2018-07-16T01:24:14.692Z,25.64
2018-07-16T01:26:44.627Z,25.76
2018-07-16T01:29:14.449Z,25.76
2018-07-16T01:31:44.300Z,25.68
2018-07-16T01:34:14.108Z,25.77
2018-07-16T01:36:43.942Z,25.77
2018-07-16T01:39:13.732Z,25.77
2018-07-16T01:41:43.588Z,25.86
2018-07-16T01:44:13.412Z,25.83
2018-07-16T01:46:43.253Z,25.83
2018-07-16T01:49:13.060Z,25.79
2018-07-16T01:51:42.912Z,25.71
2018-07-16T01:54:12.676Z,25.69
2018-07-16T01:56:42.505Z,25.73
2018-07-16T01:59:12.364Z,25.71
2018-07-16T02:01:42.139Z,25.71
2018-07-16T02:04:11.995Z,25.78
2018-07-16T02:06:41.783Z,25.67
2018-07-16T02:09:11.596Z,25.64
2018-07-16T02:11:41.396Z,25.57
2018-07-16T02:14:11.193Z,25.57
2018-07-16T02:16:41.036Z,25.55
2018-07-16T02:19:10.873Z,25.48
2018-07-16T02:21:40.693Z,25.52
2018-07-16T02:24:10.512Z,25.46
2018-07-16T02:26:40.345Z,25.48
2018-07-16T02:29:10.104Z,25.49
2018-07-16T02:31:39.944Z,25.48
2018-07-16T02:34:09.749Z,25.40
2018-07-16T02:36:39.514Z,25.40
2018-07-16T02:39:09.340Z,25.43
2018-07-16T02:41:39.154Z,25.38
2018-07-16T02:44:08.985Z,25.34
2018-07-16T02:46:38.770Z,25.28
2018-07-16T02:49:08.605Z,25.28
2018-07-16T02:51:38.376Z,25.28
2018-07-16T02:54:08.201Z,25.27
2018-07-16T02:56:38.042Z,25.32
2018-07-16T02:59:07.876Z,25.27
2018-07-16T03:01:37.708Z,25.27
2018-07-16T03:04:07.527Z,25.22
2018-07-16T03:06:37.365Z,25.26
2018-07-16T03:09:07.529Z,25.23
2018-07-16T03:11:37.386Z,25.17
2018-07-16T03:14:07.229Z,25.22
2018-07-16T03:16:37.073Z,25.23
2018-07-16T03:19:07.124Z,25.21
2018-07-16T03:21:37.008Z,25.25
2018-07-16T03:24:06.824Z,25.20
2018-07-16T03:26:36.608Z,25.19
2018-07-16T03:29:06.436Z,25.18
2018-07-16T03:31:36.228Z,25.25
2018-07-16T03:34:06.056Z,25.16
2018-07-16T03:36:35.910Z,25.20
2018-07-16T03:39:07.599Z,25.22
2018-07-16T03:41:37.428Z,25.30
2018-07-16T03:44:07.324Z,25.30
2018-07-16T03:46:37.123Z,25.23
2018-07-16T03:49:06.944Z,25.26
2018-07-16T03:51:36.714Z,25.16
2018-07-16T03:54:06.820Z,25.27
2018-07-16T03:56:36.620Z,25.29
2018-07-16T03:59:06.497Z,25.41
2018-07-16T04:01:36.357Z,25.45
2018-07-16T04:04:06.358Z,25.57
2018-07-16T04:06:36.168Z,25.54
2018-07-16T04:09:06.763Z,25.71
2018-07-16T04:11:36.728Z,25.71
2018-07-16T04:14:06.613Z,25.91
2018-07-16T04:16:36.413Z,25.89
2018-07-16T04:19:06.252Z,25.96
2018-07-16T04:21:36.044Z,26.06
2018-07-16T04:24:05.880Z,26.17
2018-07-16T04:26:35.652Z,26.39
2018-07-16T04:29:05.507Z,26.50
2018-07-16T04:31:35.274Z,26.60
2018-07-16T04:34:05.264Z,26.18
2018-07-16T04:36:35.064Z,26.60
2018-07-16T04:39:06.036Z,26.72
2018-07-16T04:41:36.184Z,26.93
2018-07-16T04:44:06.041Z,27.08
2018-07-16T04:46:35.877Z,27.24
2018-07-16T04:49:05.640Z,27.33
2018-07-16T04:51:35.440Z,27.50
2018-07-16T04:54:06.271Z,27.25
2018-07-16T04:56:36.088Z,27.41
2018-07-16T04:59:06.391Z,27.60
2018-07-16T05:01:36.221Z,27.44
2018-07-16T05:04:06.113Z,27.63
2018-07-16T05:06:35.936Z,27.75
2018-07-16T05:09:06.764Z,27.82
2018-07-16T05:11:36.603Z,27.77
2018-07-16T05:14:06.488Z,27.92
2018-07-16T05:16:36.328Z,27.98
2018-07-16T05:19:06.477Z,27.98
2018-07-16T05:21:36.304Z,28.03
2018-07-16T05:24:06.241Z,27.98
2018-07-16T05:26:36.033Z,28.04
2018-07-16T05:29:05.845Z,28.16
2018-07-16T05:31:35.721Z,28.13
2018-07-16T05:34:05.572Z,28.22
2018-07-16T05:36:35.444Z,28.17
2018-07-16T05:39:06.036Z,28.47
2018-07-16T05:41:35.919Z,28.57
2018-07-16T05:44:05.960Z,28.73
2018-07-16T05:46:35.812Z,28.87
2018-07-16T05:49:05.716Z,28.97
2018-07-16T05:51:35.606Z,28.88
2018-07-16T05:54:05.412Z,29.01
2018-07-16T05:56:35.308Z,29.08
2018-07-16T05:59:05.752Z,29.09
2018-07-16T06:01:35.676Z,29.12
2018-07-16T06:04:05.620Z,29.07
2018-07-16T06:06:35.564Z,29.05
2018-07-16T06:09:06.303Z,29.31
2018-07-16T06:11:36.249Z,29.35
2018-07-16T06:14:06.108Z,29.37
2018-07-16T06:16:36.216Z,29.52
2018-07-16T06:19:06.198Z,29.51
2018-07-16T06:21:36.116Z,29.45
2018-07-16T06:24:06.017Z,29.58
2018-07-16T06:26:35.982Z,29.62
2018-07-16T06:29:05.964Z,29.63
2018-07-16T06:31:35.873Z,29.51
2018-07-16T06:34:05.904Z,29.57
2018-07-16T06:36:35.948Z,29.70
2018-07-16T06:39:06.452Z,29.71
2018-07-16T06:41:36.772Z,29.79
2018-07-16T06:44:06.560Z,29.85
2018-07-16T06:46:36.476Z,29.78
2018-07-16T06:49:06.501Z,29.90
2018-07-16T06:51:36.288Z,30.09
2018-07-16T06:54:06.116Z,30.24
2018-07-16T06:56:35.892Z,30.26
2018-07-16T06:59:05.817Z,30.46
2018-07-16T07:04:15.197Z,30.40
2018-07-16T07:06:45.423Z,30.32
2018-07-16T07:09:15.222Z,30.42
2018-07-16T07:11:45.045Z,30.45
2018-07-16T07:14:14.954Z,30.47
2018-07-16T07:16:44.860Z,30.51
2018-07-16T07:19:14.676Z,30.54
2018-07-16T07:21:44.524Z,30.71
2018-07-16T07:24:14.347Z,30.80
2018-07-16T07:26:44.152Z,30.99
2018-07-16T07:29:13.981Z,30.92
2018-07-16T07:31:43.820Z,31.13
2018-07-16T07:34:13.685Z,31.28
2018-07-16T07:36:43.538Z,30.95
2018-07-16T07:39:13.377Z,31.00
2018-07-16T07:41:43.228Z,30.93
2018-07-16T07:44:13.132Z,30.68
2018-07-16T07:46:43.197Z,30.75
2018-07-16T07:49:13.028Z,30.98
2018-07-16T07:51:42.917Z,30.90
2018-07-16T07:54:13.139Z,30.92
2018-07-16T07:56:42.921Z,30.95
2018-07-16T07:59:12.820Z,31.09
2018-07-16T08:01:42.777Z,31.24
2018-07-16T08:04:12.600Z,31.19
2018-07-16T08:06:46.482Z,31.35
2018-07-16T08:09:16.292Z,31.25
2018-07-16T08:11:46.145Z,31.14
2018-07-16T08:14:17.018Z,31.11
2018-07-16T08:16:46.928Z,31.18
2018-07-16T08:19:16.836Z,31.47
2018-07-16T08:21:46.759Z,31.44
2018-07-16T08:24:16.712Z,31.53
2018-07-16T08:26:46.680Z,31.48
2018-07-16T08:29:16.632Z,30.97
2018-07-16T08:31:46.546Z,31.41
2018-07-16T08:34:16.412Z,31.46
2018-07-16T08:36:46.281Z,31.68
2018-07-16T08:39:16.121Z,31.67
2018-07-16T08:41:46.337Z,31.74
2018-07-16T08:44:16.289Z,31.86
2018-07-16T08:46:46.184Z,31.80
2018-07-16T08:49:16.172Z,32.09
2018-07-16T08:51:46.764Z,32.10
2018-07-16T08:54:16.937Z,32.21
2018-07-16T08:56:46.860Z,32.24
2018-07-16T08:59:16.812Z,32.19
2018-07-16T09:01:46.696Z,32.17
2018-07-16T09:04:16.533Z,32.39
2018-07-16T09:06:46.511Z,32.33
2018-07-16T09:09:16.329Z,32.39
2018-07-16T09:11:46.165Z,32.33
2018-07-16T09:14:16.030Z,32.53
2018-07-16T09:16:45.837Z,32.44
2018-07-16T09:19:15.910Z,32.37
2018-07-16T09:21:45.777Z,32.19
2018-07-16T09:24:15.700Z,32.54
2018-07-16T09:26:45.604Z,32.63
2018-07-16T09:29:15.567Z,32.64
2018-07-16T09:31:45.492Z,32.75
2018-07-16T09:34:15.485Z,32.33
2018-07-16T09:36:45.423Z,32.11
2018-07-16T09:39:15.361Z,32.24
2018-07-16T09:41:45.212Z,32.36
2018-07-16T09:44:15.133Z,32.27
2018-07-16T09:46:45.022Z,32.14
2018-07-16T09:49:14.796Z,32.16
2018-07-16T09:51:44.632Z,32.23
2018-07-16T09:54:14.477Z,32.23
2018-07-16T09:56:44.258Z,32.30
2018-07-16T09:59:14.233Z,32.14
2018-07-16T10:01:45.046Z,32.17
2018-07-16T10:04:15.672Z,32.46
2018-07-16T10:06:45.544Z,32.27
2018-07-16T10:09:15.368Z,32.30
2018-07-16T10:11:45.201Z,32.43
2018-07-16T10:14:15.000Z,32.41
2018-07-16T10:16:44.879Z,32.63
2018-07-16T10:19:14.656Z,32.68
2018-07-16T10:21:44.524Z,32.85
2018-07-16T10:24:14.351Z,32.86
2018-07-16T10:26:44.370Z,32.92
2018-07-16T10:29:14.284Z,32.98
2018-07-16T10:31:44.267Z,32.92
2018-07-16T10:34:14.109Z,32.93
2018-07-16T10:36:43.971Z,32.87
2018-07-16T10:39:13.900Z,32.95
2018-07-16T10:41:43.791Z,33.03
2018-07-16T10:44:13.805Z,33.03
2018-07-16T10:46:43.721Z,33.02
2018-07-16T10:49:13.535Z,32.88
2018-07-16T10:51:43.373Z,32.94
2018-07-16T10:54:13.312Z,32.92
2018-07-16T10:56:43.328Z,33.08
2018-07-16T10:59:13.164Z,32.84
2018-07-16T11:01:42.997Z,33.11
2018-07-16T11:04:12.865Z,33.07
2018-07-16T11:06:42.659Z,32.59
2018-07-16T11:09:12.504Z,33.09
2018-07-16T11:11:44.586Z,33.04
2018-07-16T11:14:14.491Z,33.01
2018-07-16T11:16:44.348Z,33.06
2018-07-16T11:19:14.304Z,33.06
2018-07-16T11:21:44.303Z,33.14
2018-07-16T11:24:14.192Z,33.24
2018-07-16T11:26:44.029Z,33.32
2018-07-16T11:29:13.809Z,33.44
2018-07-16T11:31:43.692Z,33.52
2018-07-16T11:34:13.548Z,33.44
2018-07-16T11:36:43.441Z,33.39
2018-07-16T11:39:13.337Z,33.30
2018-07-16T11:41:43.192Z,33.30
2018-07-16T11:44:13.192Z,33.32
2018-07-16T11:46:43.014Z,33.32
2018-07-16T11:49:12.972Z,33.24
2018-07-16T11:51:42.840Z,33.28
2018-07-16T11:54:12.736Z,33.29
2018-07-16T11:56:42.561Z,33.01
2018-07-16T11:59:12.577Z,32.93
2018-07-16T12:01:42.674Z,32.93
2018-07-16T12:04:12.600Z,33.19
2018-07-16T12:06:42.445Z,33.36
2018-07-16T12:09:12.276Z,33.07
2018-07-16T12:11:42.120Z,33.20
2018-07-16T12:15:41.189Z,33.21
2018-07-16T12:18:11.120Z,33.35
2018-07-16T12:20:40.907Z,33.26
2018-07-16T12:23:10.743Z,33.10
2018-07-16T12:25:40.568Z,33.39
2018-07-16T12:28:10.397Z,33.40
2018-07-16T12:30:40.176Z,33.39
2018-07-16T12:33:10.005Z,33.31
2018-07-16T12:35:39.876Z,33.34
2018-07-16T12:38:09.700Z,33.45
2018-07-16T12:40:39.548Z,33.59
2018-07-16T12:43:09.332Z,33.64
2018-07-16T12:45:39.199Z,33.64
2018-07-16T12:48:09.038Z,33.78
2018-07-16T12:50:39.008Z,33.73
2018-07-16T12:53:08.945Z,33.62
2018-07-16T12:55:38.853Z,33.59
2018-07-16T12:58:08.720Z,33.71
2018-07-16T13:00:38.601Z,33.70
2018-07-16T13:03:08.390Z,33.61
2018-07-16T13:05:38.295Z,33.59
2018-07-16T13:08:08.211Z,33.21
2018-07-16T13:10:38.147Z,33.15
2018-07-16T13:13:07.997Z,33.57
2018-07-16T13:15:37.942Z,33.70
2018-07-16T13:18:07.869Z,33.59
2018-07-16T13:20:37.612Z,33.56
2018-07-16T13:23:07.787Z,33.63
2018-07-16T13:25:37.568Z,33.70
2018-07-16T13:28:07.439Z,33.53
2018-07-16T13:30:37.300Z,33.50
2018-07-16T13:33:07.171Z,33.48
2018-07-16T13:35:37.019Z,33.63
2018-07-16T13:38:06.852Z,33.66
2018-07-16T13:40:36.643Z,33.53
2018-07-16T13:43:06.544Z,33.57
2018-07-16T13:45:36.372Z,33.64
2018-07-16T13:48:06.249Z,33.54
2018-07-16T13:50:36.156Z,33.03
2018-07-16T13:53:06.340Z,33.61
2018-07-16T13:55:36.296Z,33.46
2018-07-16T13:58:06.195Z,33.53
2018-07-16T14:00:35.983Z,33.44
2018-07-16T14:03:05.823Z,33.50
2018-07-16T14:05:35.567Z,33.55
2018-07-16T14:08:05.455Z,33.70
2018-07-16T14:10:35.351Z,33.62
2018-07-16T14:13:05.559Z,33.66
2018-07-16T14:15:35.615Z,33.65
2018-07-16T14:18:05.547Z,33.60
2018-07-16T14:20:35.351Z,33.63
2018-07-16T14:23:05.268Z,33.61
2018-07-16T14:25:35.126Z,33.55
2018-07-16T14:28:04.971Z,33.55
2018-07-16T14:30:34.733Z,33.72
2018-07-16T14:33:04.475Z,33.52
2018-07-16T14:35:34.312Z,33.59
2018-07-16T14:38:04.125Z,33.57
2018-07-16T14:40:33.840Z,33.56
2018-07-16T14:43:03.896Z,33.48
2018-07-16T14:45:33.939Z,33.51
2018-07-16T14:48:03.712Z,33.48
2018-07-16T14:50:33.515Z,33.42
2018-07-16T14:53:03.222Z,33.32
2018-07-16T14:55:32.987Z,33.33
2018-07-16T14:58:02.768Z,33.34
2018-07-16T15:00:32.594Z,33.32
2018-07-16T15:03:02.368Z,33.36
2018-07-16T15:05:32.176Z,33.39
2018-07-16T15:08:02.047Z,33.45
2018-07-16T15:10:31.816Z,33.37
2018-07-16T15:13:01.587Z,33.38
2018-07-16T15:15:31.427Z,33.38
2018-07-16T15:18:01.187Z,33.20
2018-07-16T15:20:31.150Z,33.22
2018-07-16T15:23:00.871Z,33.24
2018-07-16T15:25:30.608Z,33.14
2018-07-16T15:28:00.579Z,33.19
2018-07-16T15:30:30.504Z,33.13
2018-07-16T15:33:00.327Z,32.63
2018-07-16T15:35:30.106Z,33.16
2018-07-16T15:37:59.947Z,33.08
2018-07-16T15:40:29.963Z,33.03
2018-07-16T15:43:00.138Z,32.94
2018-07-16T15:45:29.952Z,32.96
2018-07-16T15:47:59.763Z,32.86
2018-07-16T15:50:29.541Z,32.79
2018-07-16T15:52:59.295Z,32.71
2018-07-16T15:55:29.025Z,32.67
2018-07-16T15:57:58.836Z,32.51
2018-07-16T16:00:28.568Z,32.56
2018-07-16T16:02:58.384Z,32.43
2018-07-16T16:05:28.116Z,32.51
2018-07-16T16:07:57.875Z,32.51
2018-07-16T16:10:27.635Z,32.34
2018-07-16T16:12:57.436Z,32.35
2018-07-16T16:15:27.233Z,32.27
2018-07-16T16:17:57.008Z,32.30
2018-07-16T16:20:26.848Z,32.24
2018-07-16T16:22:56.601Z,32.22
2018-07-16T16:25:26.353Z,32.18
2018-07-16T16:27:56.119Z,32.17
2018-07-16T16:30:25.885Z,32.07
2018-07-16T16:32:55.687Z,32.04
2018-07-16T16:35:25.595Z,32.06
2018-07-16T16:37:55.363Z,31.98
2018-07-16T16:40:25.135Z,31.82
2018-07-16T16:42:54.942Z,31.86
2018-07-16T16:45:24.743Z,31.83
2018-07-16T16:47:54.480Z,31.79
2018-07-16T16:50:24.223Z,31.71
2018-07-16T16:52:54.100Z,31.68
2018-07-16T16:55:23.904Z,31.60
2018-07-16T16:57:53.692Z,31.50
2018-07-16T17:00:23.407Z,31.53
2018-07-16T17:02:53.167Z,31.45
2018-07-16T17:05:22.874Z,31.47
2018-07-16T17:07:52.684Z,31.43
2018-07-16T17:10:22.551Z,31.36
2018-07-16T17:12:52.403Z,31.27
2018-07-16T17:15:22.181Z,31.22
2018-07-16T17:17:52.005Z,31.19
2018-07-16T17:20:21.837Z,31.07
2018-07-16T17:22:51.649Z,31.03
2018-07-16T17:25:21.463Z,31.03
2018-07-16T17:27:51.272Z,30.55
2018-07-16T17:30:21.143Z,30.87
2018-07-16T17:32:50.972Z,30.79
2018-07-16T17:35:20.801Z,30.77
2018-07-16T17:37:50.610Z,30.70
2018-07-16T17:40:20.478Z,30.71
2018-07-16T17:42:50.277Z,30.66
2018-07-16T17:45:20.095Z,30.59
2018-07-16T17:47:50.112Z,30.52
2018-07-16T17:50:20.182Z,30.43
2018-07-16T17:52:50.107Z,30.28
2018-07-16T17:55:20.012Z,30.22
2018-07-16T17:57:49.945Z,30.06
2018-07-16T18:00:19.852Z,29.93
2018-07-16T18:02:49.652Z,29.80
2018-07-16T18:05:19.536Z,29.73
2018-07-16T18:07:49.397Z,29.63
2018-07-16T18:10:19.236Z,29.54
2018-07-16T18:12:49.040Z,29.46
2018-07-16T18:15:18.853Z,29.34
2018-07-16T18:17:48.708Z,29.12
2018-07-16T18:20:18.520Z,29.02
2018-07-16T18:22:48.332Z,28.95
2018-07-16T18:25:18.168Z,28.79
2018-07-16T18:27:47.998Z,28.73
2018-07-16T18:30:17.764Z,28.67
2018-07-16T18:32:47.696Z,28.65
2018-07-16T18:35:17.780Z,28.51
2018-07-16T18:37:47.672Z,28.46
2018-07-16T18:40:17.513Z,28.41
2018-07-16T18:42:47.325Z,28.27
2018-07-16T18:45:17.135Z,28.14
2018-07-16T18:47:47.068Z,28.14
2018-07-16T18:50:16.956Z,28.08
2018-07-16T18:52:46.785Z,28.01
2018-07-16T18:55:16.669Z,27.99
2018-07-16T18:57:46.484Z,27.96
2018-07-16T19:00:16.273Z,27.95
2018-07-16T19:02:46.112Z,27.89
2018-07-16T19:05:15.920Z,27.84
2018-07-16T19:07:45.781Z,27.77
2018-07-16T19:10:15.564Z,27.66
2018-07-16T19:12:45.412Z,27.61
2018-07-16T19:15:24.829Z,27.50
2018-07-16T19:17:55.388Z,27.44
2018-07-16T19:20:25.747Z,27.45
2018-07-16T19:22:55.664Z,27.42
2018-07-16T19:25:25.552Z,27.38
2018-07-16T19:27:55.432Z,27.34
2018-07-16T19:30:25.312Z,27.32
2018-07-16T19:32:55.116Z,27.27
2018-07-16T19:35:25.640Z,27.24
2018-07-16T19:37:55.508Z,27.21
2018-07-16T19:40:25.316Z,27.19
2018-07-16T19:42:55.117Z,27.12
2018-07-16T19:45:24.904Z,27.09
2018-07-16T19:47:54.772Z,27.05
2018-07-16T19:50:24.564Z,27.02
2018-07-16T19:52:54.397Z,26.99
2018-07-16T19:55:24.254Z,26.95
2018-07-16T19:57:54.114Z,26.91
2018-07-16T20:00:23.953Z,26.87
2018-07-16T20:02:53.905Z,26.84
2018-07-16T20:05:23.704Z,26.83
2018-07-16T20:07:53.562Z,26.79
2018-07-16T20:10:23.340Z,26.23
2018-07-16T20:12:53.152Z,26.75
2018-07-16T20:15:23.016Z,26.70
2018-07-16T20:17:52.835Z,26.69
2018-07-16T20:20:22.808Z,26.64
2018-07-16T20:22:52.635Z,26.57
2018-07-16T20:25:22.436Z,26.55
2018-07-16T20:27:52.355Z,26.48
2018-07-16T20:30:22.151Z,26.45
2018-07-16T20:32:51.976Z,26.39
2018-07-16T20:35:21.790Z,26.33
2018-07-16T20:37:51.596Z,26.29
2018-07-16T20:40:21.412Z,26.22
2018-07-16T20:42:51.161Z,26.16
2018-07-16T20:45:20.983Z,26.11
2018-07-16T20:47:50.762Z,26.09
2018-07-16T20:50:20.599Z,26.08
2018-07-16T20:52:50.419Z,26.07
2018-07-16T20:55:20.272Z,26.04
2018-07-16T20:57:50.097Z,26.05
2018-07-16T21:00:19.980Z,26.01
2018-07-16T21:02:49.800Z,25.85
2018-07-16T21:05:19.664Z,25.35
2018-07-16T21:07:49.565Z,25.85
2018-07-16T21:10:19.356Z,25.84
2018-07-16T21:12:49.200Z,25.72
2018-07-16T21:15:19.017Z,25.72
2018-07-16T21:17:48.857Z,25.69
2018-07-16T21:20:18.686Z,25.59
2018-07-16T21:22:48.544Z,25.57
2018-07-16T21:25:18.316Z,25.54
2018-07-16T21:27:48.172Z,25.56
2018-07-16T21:30:18.115Z,25.52
2018-07-16T21:32:47.841Z,25.51
2018-07-16T21:35:17.688Z,25.48
2018-07-16T21:37:47.493Z,25.45
2018-07-16T21:40:17.382Z,25.45
2018-07-16T21:42:47.184Z,25.46
2018-07-16T21:45:17.057Z,25.43
2018-07-16T21:47:46.832Z,25.43
2018-07-16T21:50:16.681Z,25.42
2018-07-16T21:52:46.484Z,25.40
2018-07-16T21:55:16.337Z,25.35
2018-07-16T21:57:46.104Z,25.33
2018-07-16T22:00:28.956Z,25.31
2018-07-16T22:02:59.932Z,25.27
2018-07-16T22:05:30.315Z,25.23
2018-07-16T22:08:00.748Z,25.22
2018-07-16T22:10:30.549Z,25.17
2018-07-16T22:13:00.429Z,25.13
2018-07-16T22:15:30.437Z,25.07
2018-07-16T22:18:00.263Z,25.05
2018-07-16T22:20:30.115Z,25.00
2018-07-16T22:22:59.955Z,25.01
2018-07-16T22:25:29.796Z,25.00
2018-07-16T22:27:59.683Z,25.03
2018-07-16T22:30:29.455Z,25.00
2018-07-16T22:32:59.392Z,25.01
2018-07-16T22:35:29.232Z,25.01
2018-07-16T22:37:59.011Z,24.98
2018-07-16T22:40:28.809Z,24.95
2018-07-16T22:42:58.647Z,24.91
2018-07-16T22:45:28.417Z,24.88
2018-07-16T22:47:58.260Z,24.86
2018-07-16T22:50:28.071Z,24.90
2018-07-16T22:52:57.896Z,24.85
2018-07-16T22:55:27.692Z,24.85
2018-07-16T22:57:57.537Z,24.82
2018-07-16T23:00:27.351Z,24.84
2018-07-16T23:02:57.165Z,24.70
2018-07-16T23:05:27.007Z,24.69
2018-07-16T23:07:56.850Z,24.69
2018-07-16T23:10:26.704Z,24.62
2018-07-16T23:12:56.500Z,24.67
2018-07-16T23:15:26.273Z,24.70
2018-07-16T23:17:56.089Z,24.53
2018-07-16T23:20:25.882Z,24.51
2018-07-16T23:22:56.553Z,24.46
2018-07-16T23:25:26.360Z,24.39
2018-07-16T23:27:56.184Z,24.33
2018-07-16T23:30:26.034Z,24.15
2018-07-16T23:32:55.924Z,24.12
2018-07-16T23:35:25.720Z,24.09
2018-07-16T23:37:55.555Z,24.08
2018-07-16T23:40:25.348Z,24.10
2018-07-16T23:42:55.279Z,24.11
2018-07-16T23:45:25.113Z,24.09
2018-07-16T23:47:54.928Z,24.04
2018-07-16T23:50:24.812Z,23.93
2018-07-16T23:52:54.620Z,23.87
2018-07-16T23:55:24.416Z,23.78
2018-07-16T23:57:54.238Z,23.69
